sensor_id;sensor_type;location;lat;lon;timestamp;temperature;humidity
29575;DHT22;16507;51.046;6.406;2023-06-24T14:33:41;30.50;1.40
29575;DHT22;16507;51.046;6.406;2023-06-24T14:36:06;30.20;2.60
29575;DHT22;16507;51.046;6.406;2023-06-24T14:38:32;30.20;2.30
29575;DHT22;16507;51.046;6.406;2023-06-24T14:41:00;30.30;3.10
29575;DHT22;16507;51.046;6.406;2023-06-24T14:43:26;30.10;1.00
29575;DHT22;16507;51.046;6.406;2023-06-24T14:45:52;30.70;9.50
29575;DHT22;16507;51.046;6.406;2023-06-24T14:48:17;30.30;6.50
29575;DHT22;16507;51.046;6.406;2023-06-24T14:50:43;29.80;3.40
29575;DHT22;16507;51.046;6.406;2023-06-24T14:53:08;29.70;3.70
29575;DHT22;16507;51.046;6.406;2023-06-24T14:55:34;29.20;1.70
29575;DHT22;16507;51.046;6.406;2023-06-24T14:58:00;29.60;3.60
29575;DHT22;16507;51.046;6.406;2023-06-24T15:00:25;29.90;4.80
29575;DHT22;16507;51.046;6.406;2023-06-24T15:02:51;30.10;3.20
29575;DHT22;16507;51.046;6.406;2023-06-24T15:05:16;29.40;1.00
29575;DHT22;16507;51.046;6.406;2023-06-24T15:07:42;29.20;4.10
29575;DHT22;16507;51.046;6.406;2023-06-24T15:10:08;29.00;2.40
29575;DHT22;16507;51.046;6.406;2023-06-24T15:12:34;28.30;1.00
29575;DHT22;16507;51.046;6.406;2023-06-24T15:15:00;28.20;2.90
29575;DHT22;16507;51.046;6.406;2023-06-24T15:17:28;28.60;4.20
29575;DHT22;16507;51.046;6.406;2023-06-24T15:19:55;28.70;4.30
29575;DHT22;16507;51.046;6.406;2023-06-24T15:22:20;29.50;3.30
29575;DHT22;16507;51.046;6.406;2023-06-24T15:24:46;29.60;5.50
29575;DHT22;16507;51.046;6.406;2023-06-24T15:27:12;29.70;1.40
29575;DHT22;16507;51.046;6.406;2023-06-24T15:29:37;29.70;4.10
29575;DHT22;16507;51.046;6.406;2023-06-24T15:32:03;30.00;8.10
29575;DHT22;16507;51.046;6.406;2023-06-24T15:34:29;30.20;10.50
29575;DHT22;16507;51.046;6.406;2023-06-24T15:36:55;30.00;6.30
29575;DHT22;16507;51.046;6.406;2023-06-24T15:39:21;28.80;1.10
29575;DHT22;16507;51.046;6.406;2023-06-24T15:41:47;28.60;3.50
29575;DHT22;16507;51.046;6.406;2023-06-24T15:44:15;29.00;1.10
29575;DHT22;16507;51.046;6.406;2023-06-24T15:46:41;29.40;3.40
29575;DHT22;16507;51.046;6.406;2023-06-24T15:49:08;29.00;2.60
29575;DHT22;16507;51.046;6.406;2023-06-24T15:51:34;29.30;4.40
29575;DHT22;16507;51.046;6.406;2023-06-24T15:53:59;29.30;3.60
29575;DHT22;16507;51.046;6.406;2023-06-24T15:56:25;29.40;3.90
29575;DHT22;16507;51.046;6.406;2023-06-24T15:58:51;30.00;9.80
29575;DHT22;16507;51.046;6.406;2023-06-24T16:01:16;30.00;6.40
29575;DHT22;16507;51.046;6.406;2023-06-24T16:03:42;30.20;18.60
29575;DHT22;16507;51.046;6.406;2023-06-24T16:06:08;29.70;4.70
29575;DHT22;16507;51.046;6.406;2023-06-24T16:08:33;29.00;4.20
29575;DHT22;16507;51.046;6.406;2023-06-24T16:10:59;29.20;10.30
29575;DHT22;16507;51.046;6.406;2023-06-24T16:13:30;29.20;6.10
29575;DHT22;16507;51.046;6.406;2023-06-24T16:15:57;29.30;9.20
29575;DHT22;16507;51.046;6.406;2023-06-24T16:18:26;29.80;8.90
29575;DHT22;16507;51.046;6.406;2023-06-24T16:20:51;29.80;9.20
29575;DHT22;16507;51.046;6.406;2023-06-24T16:23:17;29.90;8.10
29575;DHT22;16507;51.046;6.406;2023-06-24T16:25:42;29.90;8.80
29575;DHT22;16507;51.046;6.406;2023-06-24T16:28:08;29.90;7.70
29575;DHT22;16507;51.046;6.406;2023-06-24T16:30:34;30.20;9.30
29575;DHT22;16507;51.046;6.406;2023-06-24T16:32:59;30.10;8.90
29575;DHT22;16507;51.046;6.406;2023-06-24T16:35:25;29.20;5.10
29575;DHT22;16507;51.046;6.406;2023-06-24T16:37:50;29.30;7.70
29575;DHT22;16507;51.046;6.406;2023-06-24T16:40:16;29.30;11.70
29575;DHT22;16507;51.046;6.406;2023-06-24T16:42:41;29.30;10.10
29575;DHT22;16507;51.046;6.406;2023-06-24T16:45:07;29.60;10.20
29575;DHT22;16507;51.046;6.406;2023-06-24T16:47:33;29.90;12.50
29575;DHT22;16507;51.046;6.406;2023-06-24T16:49:59;29.60;11.00
29575;DHT22;16507;51.046;6.406;2023-06-24T16:52:27;29.80;12.50
29575;DHT22;16507;51.046;6.406;2023-06-24T16:54:55;29.50;21.20
29575;DHT22;16507;51.046;6.406;2023-06-24T16:57:21;29.80;12.30
29575;DHT22;16507;51.046;6.406;2023-06-24T16:59:47;30.10;14.70
29575;DHT22;16507;51.046;6.406;2023-06-24T17:02:12;30.30;18.40
29575;DHT22;16507;51.046;6.406;2023-06-24T17:04:38;30.50;17.10
29575;DHT22;16507;51.046;6.406;2023-06-24T17:07:03;30.70;17.50
29575;DHT22;16507;51.046;6.406;2023-06-24T17:09:29;30.70;16.50
29575;DHT22;16507;51.046;6.406;2023-06-24T17:11:55;29.90;26.70
29575;DHT22;16507;51.046;6.406;2023-06-24T17:14:23;29.50;16.10
29575;DHT22;16507;51.046;6.406;2023-06-24T17:16:49;29.30;17.50
29575;DHT22;16507;51.046;6.406;2023-06-24T17:19:14;28.90;13.80
29575;DHT22;16507;51.046;6.406;2023-06-24T17:21:42;28.50;12.80
29575;DHT22;16507;51.046;6.406;2023-06-24T17:24:11;28.40;12.20
29575;DHT22;16507;51.046;6.406;2023-06-24T17:26:36;28.40;12.50
29575;DHT22;16507;51.046;6.406;2023-06-24T17:29:02;28.50;12.80
29575;DHT22;16507;51.046;6.406;2023-06-24T17:31:28;28.60;21.20
29575;DHT22;16507;51.046;6.406;2023-06-24T17:33:53;28.80;66.40
29575;DHT22;16507;51.046;6.406;2023-06-24T17:36:19;28.50;64.50
29575;DHT22;16507;51.046;6.406;2023-06-24T17:38:45;28.50;63.40
29575;DHT22;16507;51.046;6.406;2023-06-24T17:41:10;28.60;16.00
29575;DHT22;16507;51.046;6.406;2023-06-24T17:43:36;28.60;16.80
29575;DHT22;16507;51.046;6.406;2023-06-24T17:46:01;28.30;14.10
29575;DHT22;16507;51.046;6.406;2023-06-24T17:48:28;28.40;16.20
29575;DHT22;16507;51.046;6.406;2023-06-24T17:50:53;28.70;14.10
29575;DHT22;16507;51.046;6.406;2023-06-24T17:53:19;28.60;13.60
29575;DHT22;16507;51.046;6.406;2023-06-24T17:55:46;28.20;13.60
29575;DHT22;16507;51.046;6.406;2023-06-24T17:58:12;28.30;17.00
29575;DHT22;16507;51.046;6.406;2023-06-24T18:00:37;28.10;13.30
29575;DHT22;16507;51.046;6.406;2023-06-24T18:03:09;28.10;13.40
29575;DHT22;16507;51.046;6.406;2023-06-24T18:05:35;27.80;15.70
29575;DHT22;16507;51.046;6.406;2023-06-24T18:08:01;28.00;16.80
29575;DHT22;16507;51.046;6.406;2023-06-24T18:10:26;28.00;28.80
29575;DHT22;16507;51.046;6.406;2023-06-24T18:12:52;27.70;17.80
29575;DHT22;16507;51.046;6.406;2023-06-24T18:15:18;27.80;18.50
29575;DHT22;16507;51.046;6.406;2023-06-24T18:17:43;27.80;21.60
29575;DHT22;16507;51.046;6.406;2023-06-24T18:20:09;28.10;23.30
29575;DHT22;16507;51.046;6.406;2023-06-24T18:22:35;28.10;20.80
29575;DHT22;16507;51.046;6.406;2023-06-24T18:25:02;28.00;19.30
29575;DHT22;16507;51.046;6.406;2023-06-24T18:27:28;28.00;18.40
29575;DHT22;16507;51.046;6.406;2023-06-24T18:29:53;28.10;24.50
29575;DHT22;16507;51.046;6.406;2023-06-24T18:32:19;27.70;18.40
29575;DHT22;16507;51.046;6.406;2023-06-24T18:34:45;27.60;20.70
29575;DHT22;16507;51.046;6.406;2023-06-24T18:37:10;27.40;20.30
29575;DHT22;16507;51.046;6.406;2023-06-24T18:39:38;27.30;19.50
29575;DHT22;16507;51.046;6.406;2023-06-24T18:42:04;27.20;21.10
29575;DHT22;16507;51.046;6.406;2023-06-24T18:44:30;27.30;24.70
29575;DHT22;16507;51.046;6.406;2023-06-24T18:46:55;27.20;26.00
29575;DHT22;16507;51.046;6.406;2023-06-24T18:49:21;27.20;26.90
29575;DHT22;16507;51.046;6.406;2023-06-24T18:51:47;26.70;22.90
29575;DHT22;16507;51.046;6.406;2023-06-24T18:54:13;26.40;24.90
29575;DHT22;16507;51.046;6.406;2023-06-24T18:56:39;26.00;23.60
29575;DHT22;16507;51.046;6.406;2023-06-24T18:59:05;25.60;27.40
29575;DHT22;16507;51.046;6.406;2023-06-24T19:01:30;25.40;27.70
29575;DHT22;16507;51.046;6.406;2023-06-24T19:03:56;25.30;31.70
29575;DHT22;16507;51.046;6.406;2023-06-24T19:06:22;25.10;47.40
29575;DHT22;16507;51.046;6.406;2023-06-24T19:08:47;24.90;47.70
29575;DHT22;16507;51.046;6.406;2023-06-24T19:11:21;24.70;87.20
29575;DHT22;16507;51.046;6.406;2023-06-24T19:13:48;24.60;99.90
29575;DHT22;16507;51.046;6.406;2023-06-24T19:16:19;24.40;99.90
29575;DHT22;16507;51.046;6.406;2023-06-24T19:18:45;24.20;99.90
29575;DHT22;16507;51.046;6.406;2023-06-24T19:21:11;24.10;99.90
29575;DHT22;16507;51.046;6.406;2023-06-24T19:23:37;23.90;99.90
29575;DHT22;16507;51.046;6.406;2023-06-24T19:26:03;23.70;99.90
29575;DHT22;16507;51.046;6.406;2023-06-24T19:28:29;23.50;99.90
29575;DHT22;16507;51.046;6.406;2023-06-24T19:30:55;23.30;99.90
29575;DHT22;16507;51.046;6.406;2023-06-24T19:33:21;23.20;99.90
29575;DHT22;16507;51.046;6.406;2023-06-24T19:35:46;22.90;1.00
29575;DHT22;16507;51.046;6.406;2023-06-24T19:38:12;22.70;1.00
29575;DHT22;16507;51.046;6.406;2023-06-24T19:40:37;22.40;99.90
29575;DHT22;16507;51.046;6.406;2023-06-24T19:43:03;22.20;1.00
29575;DHT22;16507;51.046;6.406;2023-06-24T19:45:28;21.90;99.90
29575;DHT22;16507;51.046;6.406;2023-06-24T19:47:54;21.70;99.90
29575;DHT22;16507;51.046;6.406;2023-06-24T19:50:20;21.50;1.00
29575;DHT22;16507;51.046;6.406;2023-06-24T19:52:45;21.40;1.00
29575;DHT22;16507;51.046;6.406;2023-06-24T19:55:12;21.20;1.00
29575;DHT22;16507;51.046;6.406;2023-06-24T19:57:38;21.10;99.90
29575;DHT22;16507;51.046;6.406;2023-06-24T20:00:08;21.00;99.90
29575;DHT22;16507;51.046;6.406;2023-06-24T20:02:35;20.90;99.90
29575;DHT22;16507;51.046;6.406;2023-06-24T20:05:01;20.80;1.00
29575;DHT22;16507;51.046;6.406;2023-06-24T20:07:26;20.70;1.00
29575;DHT22;16507;51.046;6.406;2023-06-24T20:09:52;20.60;1.00
29575;DHT22;16507;51.046;6.406;2023-06-24T20:12:19;20.40;1.00
29575;DHT22;16507;51.046;6.406;2023-06-24T20:14:44;20.30;1.00
29575;DHT22;16507;51.046;6.406;2023-06-24T20:17:10;20.10;1.00
29575;DHT22;16507;51.046;6.406;2023-06-24T20:19:36;20.00;1.00
29575;DHT22;16507;51.046;6.406;2023-06-24T20:22:01;19.90;99.90
29575;DHT22;16507;51.046;6.406;2023-06-24T20:24:27;19.70;99.90
29575;DHT22;16507;51.046;6.406;2023-06-24T20:26:52;19.60;99.90
29575;DHT22;16507;51.046;6.406;2023-06-24T20:29:18;19.50;1.00
29575;DHT22;16507;51.046;6.406;2023-06-24T20:31:44;19.50;92.60
29575;DHT22;16507;51.046;6.406;2023-06-24T20:34:09;19.40;99.90
29575;DHT22;16507;51.046;6.406;2023-06-24T20:36:35;19.20;1.00
29575;DHT22;16507;51.046;6.406;2023-06-24T20:39:00;19.20;99.90
29575;DHT22;16507;51.046;6.406;2023-06-24T20:41:26;19.20;1.00
29575;DHT22;16507;51.046;6.406;2023-06-24T20:43:57;19.10;99.90
29575;DHT22;16507;51.046;6.406;2023-06-24T20:46:23;19.10;99.90
29575;DHT22;16507;51.046;6.406;2023-06-24T20:48:49;18.90;1.00
29575;DHT22;16507;51.046;6.406;2023-06-24T20:51:15;18.80;1.00
29575;DHT22;16507;51.046;6.406;2023-06-24T20:53:41;18.80;99.90
29575;DHT22;16507;51.046;6.406;2023-06-24T20:56:08;18.70;1.00
29575;DHT22;16507;51.046;6.406;2023-06-24T20:58:36;18.70;1.00
29575;DHT22;16507;51.046;6.406;2023-06-24T21:01:03;18.60;99.90
29575;DHT22;16507;51.046;6.406;2023-06-24T21:03:31;18.60;99.90
29575;DHT22;16507;51.046;6.406;2023-06-24T21:05:56;18.50;1.00
29575;DHT22;16507;51.046;6.406;2023-06-24T21:08:22;18.40;1.00
29575;DHT22;16507;51.046;6.406;2023-06-24T21:10:47;18.40;99.90
29575;DHT22;16507;51.046;6.406;2023-06-24T21:13:13;18.30;99.90
29575;DHT22;16507;51.046;6.406;2023-06-24T21:15:39;18.20;1.00
29575;DHT22;16507;51.046;6.406;2023-06-24T21:18:04;18.20;1.00
29575;DHT22;16507;51.046;6.406;2023-06-24T21:20:30;18.10;1.00
29575;DHT22;16507;51.046;6.406;2023-06-24T21:22:55;18.10;1.00
29575;DHT22;16507;51.046;6.406;2023-06-24T21:25:21;18.10;1.00
29575;DHT22;16507;51.046;6.406;2023-06-24T21:27:47;18.10;1.00
29575;DHT22;16507;51.046;6.406;2023-06-24T21:30:12;18.00;55.60
29575;DHT22;16507;51.046;6.406;2023-06-24T21:32:38;18.00;2.40
29575;DHT22;16507;51.046;6.406;2023-06-24T21:35:05;18.00;1.00
29575;DHT22;16507;51.046;6.406;2023-06-24T21:37:30;17.90;1.00
29575;DHT22;16507;51.046;6.406;2023-06-24T21:39:56;17.90;73.00
29575;DHT22;16507;51.046;6.406;2023-06-24T21:42:22;17.80;80.20
29575;DHT22;16507;51.046;6.406;2023-06-24T21:44:47;17.70;94.20
29575;DHT22;16507;51.046;6.406;2023-06-24T21:47:13;17.70;99.90
29575;DHT22;16507;51.046;6.406;2023-06-24T21:49:38;17.60;99.90
29575;DHT22;16507;51.046;6.406;2023-06-24T21:52:04;17.60;56.30
29575;DHT22;16507;51.046;6.406;2023-06-24T21:54:30;17.60;1.00
29575;DHT22;16507;51.046;6.406;2023-06-24T21:56:58;17.60;12.70
29575;DHT22;16507;51.046;6.406;2023-06-24T21:59:24;17.50;99.90
29575;DHT22;16507;51.046;6.406;2023-06-24T22:01:50;17.50;99.90
29575;DHT22;16507;51.046;6.406;2023-06-24T22:04:15;17.40;99.90
29575;DHT22;16507;51.046;6.406;2023-06-24T22:06:41;17.40;99.90
29575;DHT22;16507;51.046;6.406;2023-06-24T22:09:08;17.30;99.90
29575;DHT22;16507;51.046;6.406;2023-06-24T22:11:33;17.30;96.10
29575;DHT22;16507;51.046;6.406;2023-06-24T22:13:59;17.20;99.90
29575;DHT22;16507;51.046;6.406;2023-06-24T22:16:24;17.20;99.90
29575;DHT22;16507;51.046;6.406;2023-06-24T22:18:50;17.10;15.00
29575;DHT22;16507;51.046;6.406;2023-06-24T22:21:15;17.20;59.10
29575;DHT22;16507;51.046;6.406;2023-06-24T22:23:44;17.10;6.90
29575;DHT22;16507;51.046;6.406;2023-06-24T22:26:09;17.10;13.10
29575;DHT22;16507;51.046;6.406;2023-06-24T22:28:35;17.00;99.90
29575;DHT22;16507;51.046;6.406;2023-06-24T22:31:00;17.00;58.20
29575;DHT22;16507;51.046;6.406;2023-06-24T22:33:26;17.00;27.40
29575;DHT22;16507;51.046;6.406;2023-06-24T22:35:52;16.90;57.70
29575;DHT22;16507;51.046;6.406;2023-06-24T22:38:17;17.00;27.00
29575;DHT22;16507;51.046;6.406;2023-06-24T22:40:43;16.90;10.70
29575;DHT22;16507;51.046;6.406;2023-06-24T22:43:08;16.90;28.90
29575;DHT22;16507;51.046;6.406;2023-06-24T22:45:34;16.80;19.10
29575;DHT22;16507;51.046;6.406;2023-06-24T22:47:59;16.80;49.40
29575;DHT22;16507;51.046;6.406;2023-06-24T22:50:25;16.80;99.90
29575;DHT22;16507;51.046;6.406;2023-06-24T22:52:51;16.70;14.30
29575;DHT22;16507;51.046;6.406;2023-06-24T22:55:16;16.70;99.90
29575;DHT22;16507;51.046;6.406;2023-06-24T22:57:42;16.70;99.90
29575;DHT22;16507;51.046;6.406;2023-06-24T23:00:08;16.60;26.50
29575;DHT22;16507;51.046;6.406;2023-06-24T23:02:34;16.60;76.90
29575;DHT22;16507;51.046;6.406;2023-06-24T23:05:00;16.60;1.00
29575;DHT22;16507;51.046;6.406;2023-06-24T23:07:25;16.60;98.00
29575;DHT22;16507;51.046;6.406;2023-06-24T23:09:52;16.60;99.90
29575;DHT22;16507;51.046;6.406;2023-06-24T23:12:19;16.50;99.90
29575;DHT22;16507;51.046;6.406;2023-06-24T23:14:45;16.50;99.90
29575;DHT22;16507;51.046;6.406;2023-06-24T23:17:12;16.50;99.90
29575;DHT22;16507;51.046;6.406;2023-06-24T23:19:57;16.50;99.90
29575;DHT22;16507;51.046;6.406;2023-06-24T23:22:24;16.40;99.90
29575;DHT22;16507;51.046;6.406;2023-06-24T23:24:50;16.40;99.90
29575;DHT22;16507;51.046;6.406;2023-06-24T23:27:22;16.40;99.90
29575;DHT22;16507;51.046;6.406;2023-06-24T23:29:49;16.40;99.90
29575;DHT22;16507;51.046;6.406;2023-06-24T23:32:16;16.40;99.90
29575;DHT22;16507;51.046;6.406;2023-06-24T23:34:45;16.40;99.90
29575;DHT22;16507;51.046;6.406;2023-06-24T23:37:11;16.40;99.90
29575;DHT22;16507;51.046;6.406;2023-06-24T23:39:37;16.40;99.90
29575;DHT22;16507;51.046;6.406;2023-06-24T23:42:03;16.40;99.90
29575;DHT22;16507;51.046;6.406;2023-06-24T23:44:29;16.30;99.90
29575;DHT22;16507;51.046;6.406;2023-06-24T23:46:55;16.30;99.90
29575;DHT22;16507;51.046;6.406;2023-06-24T23:49:21;16.30;99.90
29575;DHT22;16507;51.046;6.406;2023-06-24T23:51:46;16.20;99.90
29575;DHT22;16507;51.046;6.406;2023-06-24T23:54:12;16.20;99.90
29575;DHT22;16507;51.046;6.406;2023-06-24T23:56:40;16.10;99.90
29575;DHT22;16507;51.046;6.406;2023-06-24T23:59:05;16.10;99.90
